Time;durP1;ratioP1;P1;durP2;ratioP2;P2;SDS_P1;SDS_P2;PMS_P1;PMS_P2;Temp;Humidity;BMP_temperature;BMP_pressure;BME280_temperature;BME280_humidity;BME280_pressure;Samples;Min_cycle;Max_cycle;Signal;HPM_P1;HPM_P2
2023/09/24 00:01:27;;;;;;;5.70;2.40;;;8.90;99.90;;;9.66;100.00;98908.00;5025967;28;20482;-81
2023/09/24 00:03:58;;;;;;;4.67;2.60;;;8.70;99.90;;;9.65;100.00;98911.59;5025236;28;20465;-82
2023/09/24 00:06:30;;;;;;;3.20;1.93;;;8.60;99.90;;;9.57;100.00;98910.63;5008503;28;20454;-81
2023/09/24 00:08:59;;;;;;;3.50;2.43;;;8.60;99.90;;;9.50;100.00;98912.22;5024758;28;20909;-81
2023/09/24 00:11:30;;;;;;;2.30;1.70;;;8.60;99.90;;;9.51;100.00;98915.66;5023179;28;20468;-82
2023/09/24 00:14:00;;;;;;;5.27;2.33;;;8.80;99.90;;;9.51;100.00;98921.66;5026973;28;20956;-81
2023/09/24 00:16:30;;;;;;;2.83;1.93;;;8.60;99.90;;;9.47;100.00;98925.59;5025532;28;20470;-82
2023/09/24 00:19:02;;;;;;;4.53;2.30;;;8.70;99.90;;;9.44;100.00;98923.28;5025909;28;21010;-81
2023/09/24 00:21:33;;;;;;;2.90;2.07;;;8.70;99.90;;;9.42;100.00;98927.84;5027618;28;20511;-82
2023/09/24 00:24:03;;;;;;;3.23;2.20;;;8.60;99.90;;;9.43;100.00;98921.66;5025887;28;21083;-82
2023/09/24 00:26:33;;;;;;;4.83;2.23;;;8.60;99.90;;;9.46;100.00;98921.34;5025517;28;20824;-81
2023/09/24 00:29:03;;;;;;;4.27;2.10;;;8.60;99.90;;;9.45;100.00;98921.47;5024605;28;20871;-81
2023/09/24 00:31:33;;;;;;;4.40;2.60;;;8.40;99.90;;;9.46;100.00;98913.50;5027346;28;20823;-81
2023/09/24 00:34:04;;;;;;;4.83;2.20;;;8.30;99.90;;;9.45;100.00;98905.81;5027113;28;20915;-82
2023/09/24 00:36:34;;;;;;;4.83;2.17;;;8.30;99.90;;;9.44;100.00;98914.66;5025272;28;20895;-82
2023/09/24 00:39:05;;;;;;;3.20;2.53;;;8.30;99.90;;;9.38;100.00;98910.88;5026504;28;20470;-82
2023/09/24 00:41:34;;;;;;;4.90;2.00;;;8.40;99.90;;;9.37;100.00;98908.44;5026781;28;20461;-82
2023/09/24 00:44:07;;;;;;;4.40;2.00;;;8.40;99.90;;;9.34;100.00;98906.94;5025483;28;20465;-81
2023/09/24 00:46:36;;;;;;;4.30;2.30;;;8.40;99.90;;;9.35;100.00;98910.34;5025584;28;20492;-81
2023/09/24 00:49:07;;;;;;;7.37;2.40;;;8.30;99.90;;;9.30;100.00;98926.47;5026656;28;20957;-81
2023/09/24 00:51:38;;;;;;;3.40;1.87;;;8.40;99.90;;;9.27;100.00;98924.19;5025963;28;20457;-81
2023/09/24 00:54:10;;;;;;;6.50;2.37;;;8.30;99.90;;;9.29;100.00;98927.47;5023998;28;20466;-81
2023/09/24 00:56:41;;;;;;;2.60;2.00;;;8.30;99.90;;;9.28;100.00;98928.44;5025266;28;20472;-81
2023/09/24 00:59:12;;;;;;;2.20;1.67;;;8.30;99.90;;;9.33;100.00;98928.81;5024028;28;20462;-81
2023/09/24 01:01:41;;;;;;;5.80;2.23;;;8.30;99.90;;;9.34;100.00;98930.41;5026415;28;20852;-82
2023/09/24 01:04:13;;;;;;;4.07;1.80;;;8.30;99.90;;;9.28;100.00;98922.41;5026420;28;20863;-81
2023/09/24 01:06:45;;;;;;;2.47;1.90;;;8.30;99.90;;;9.26;100.00;98925.19;5024530;28;20557;-81
2023/09/24 01:09:20;;;;;;;3.13;1.97;;;8.40;99.90;;;9.26;100.00;98926.97;5025995;28;20450;-82
2023/09/24 01:11:52;;;;;;;5.00;2.13;;;8.30;99.90;;;9.18;100.00;98925.13;5024864;28;20465;-82
2023/09/24 01:14:23;;;;;;;2.00;1.60;;;8.40;99.90;;;9.16;100.00;98927.09;5027399;28;20462;-82
2023/09/24 01:16:55;;;;;;;3.83;2.10;;;8.40;99.90;;;9.12;100.00;98920.56;5025183;28;20477;-81
2023/09/24 01:19:27;;;;;;;2.50;1.80;;;8.40;99.90;;;9.09;100.00;98926.09;5025637;28;20481;-82
2023/09/24 01:22:02;;;;;;;6.37;1.50;;;8.30;99.90;;;9.13;100.00;98926.59;5026173;28;20468;-81
2023/09/24 01:24:33;;;;;;;3.20;1.77;;;8.20;99.90;;;9.02;100.00;98927.69;5025118;28;20454;-81
2023/09/24 01:27:03;;;;;;;3.53;1.90;;;8.30;99.90;;;8.91;100.00;98938.38;5026676;28;20821;-81
2023/09/24 01:29:35;;;;;;;3.93;1.80;;;8.10;99.90;;;8.82;100.00;98934.06;5026270;28;20461;-81
2023/09/24 01:32:06;;;;;;;6.60;2.00;;;8.10;99.90;;;8.87;100.00;98937.03;5025087;28;20490;-82
2023/09/24 01:34:36;;;;;;;3.73;2.17;;;8.00;99.90;;;8.93;100.00;98937.25;5025871;28;20461;-81
2023/09/24 01:37:09;;;;;;;3.70;1.60;;;8.10;99.90;;;8.90;100.00;98940.16;5025211;28;21285;-81
2023/09/24 01:39:39;;;;;;;3.70;1.70;;;8.10;99.90;;;8.91;100.00;98938.38;5025089;28;20469;-81
2023/09/24 01:42:13;;;;;;;4.80;2.00;;;8.00;99.90;;;8.89;100.00;98937.69;5028852;28;20588;-82
2023/09/24 01:44:43;;;;;;;4.00;1.87;;;8.00;99.90;;;8.93;100.00;98931.19;5028545;28;20465;-81
2023/09/24 01:47:13;;;;;;;2.93;1.80;;;8.00;99.90;;;8.90;100.00;98936.72;5030128;28;20463;-81
2023/09/24 01:49:43;;;;;;;9.03;2.33;;;8.10;99.90;;;8.95;100.00;98931.88;5029885;28;21061;-81
2023/09/24 01:52:16;;;;;;;2.50;1.90;;;8.10;99.90;;;8.90;100.00;98937.56;5019359;28;20481;-81
2023/09/24 01:54:47;;;;;;;2.43;1.37;;;8.00;99.90;;;8.87;100.00;98944.88;5027982;28;20482;-81
2023/09/24 01:57:19;;;;;;;3.07;1.97;;;8.00;99.90;;;8.82;100.00;98945.31;5028263;28;20839;-81
2023/09/24 01:59:49;;;;;;;3.90;1.90;;;7.90;99.90;;;8.84;100.00;98947.78;5027951;28;20466;-82
2023/09/24 02:02:21;;;;;;;1.87;1.60;;;7.90;99.90;;;8.80;100.00;98951.66;5027976;28;20461;-81
2023/09/24 02:04:50;;;;;;;2.73;1.70;;;7.90;99.90;;;8.70;100.00;98956.16;5029422;28;20465;-82
2023/09/24 02:07:22;;;;;;;6.80;2.47;;;7.80;99.90;;;8.60;100.00;98953.66;5028469;28;20458;-81
2023/09/24 02:09:54;;;;;;;2.50;1.40;;;7.80;99.90;;;8.65;100.00;98956.59;5029454;28;20910;-81
2023/09/24 02:12:25;;;;;;;2.17;1.50;;;7.80;99.90;;;8.68;100.00;98963.31;5027352;28;21052;-81
2023/09/24 02:14:55;;;;;;;2.60;1.77;;;7.70;99.90;;;8.75;100.00;98964.31;5029013;28;20462;-82
2023/09/24 02:17:25;;;;;;;2.60;1.77;;;7.80;99.90;;;8.74;100.00;98957.50;5027034;28;20469;-81
2023/09/24 02:19:56;;;;;;;5.90;1.83;;;7.80;99.90;;;8.66;100.00;98962.66;5028418;28;20944;-81
2023/09/24 02:22:28;;;;;;;2.90;1.70;;;7.70;99.90;;;8.55;100.00;98958.50;5024837;28;20469;-82
2023/09/24 02:24:57;;;;;;;6.90;2.10;;;7.70;99.90;;;8.54;100.00;98960.28;5028310;28;20462;-82
2023/09/24 02:27:27;;;;;;;3.27;1.47;;;7.80;99.90;;;8.58;100.00;98961.63;5029773;28;20895;-82
2023/09/24 02:29:58;;;;;;;5.20;1.80;;;7.70;99.90;;;8.62;100.00;98963.91;5029067;28;20466;-82
2023/09/24 02:32:30;;;;;;;6.10;1.60;;;7.70;99.90;;;8.51;100.00;98971.00;5027398;28;20485;-81
2023/09/24 02:34:59;;;;;;;10.17;1.60;;;7.40;99.90;;;8.46;100.00;98975.88;5029352;28;20481;-82
2023/09/24 02:37:33;;;;;;;2.17;1.80;;;7.50;99.90;;;8.49;100.00;98969.53;5027351;28;20453;-81
2023/09/24 02:40:08;;;;;;;7.03;1.90;;;7.50;99.90;;;8.54;100.00;98968.09;5027332;28;20462;-81
2023/09/24 02:42:38;;;;;;;7.03;2.00;;;7.50;99.90;;;8.52;100.00;98967.44;5026255;28;20462;-82
2023/09/24 02:45:11;;;;;;;2.70;1.77;;;7.60;99.90;;;8.55;100.00;98974.97;5027305;28;20458;-81
2023/09/24 02:47:43;;;;;;;2.27;1.60;;;7.60;99.90;;;8.49;100.00;98969.53;5028148;28;20458;-81
2023/09/24 02:50:14;;;;;;;2.47;2.00;;;7.70;99.90;;;8.46;100.00;98969.84;5027971;28;20960;-82
2023/09/24 02:52:50;;;;;;;3.10;1.73;;;7.40;99.90;;;8.39;100.00;98972.22;5025698;28;20524;-81
2023/09/24 02:55:22;;;;;;;2.80;1.53;;;7.50;99.90;;;8.37;100.00;98974.16;5027677;28;20465;-82
2023/09/24 02:57:51;;;;;;;3.57;1.90;;;7.60;99.90;;;8.44;100.00;98976.97;5027640;28;20466;-81
2023/09/24 03:00:26;;;;;;;3.90;1.70;;;7.50;99.90;;;8.44;100.00;98972.56;5027725;28;20902;-82
2023/09/24 03:02:58;;;;;;;3.03;2.00;;;7.50;99.90;;;8.42;100.00;98974.53;5027930;28;20493;-81
2023/09/24 03:05:31;;;;;;;2.73;1.93;;;7.50;99.90;;;8.40;100.00;98980.88;5027310;28;20535;-81
2023/09/24 03:08:11;;;;;;;2.60;1.50;;;7.40;99.90;;;8.39;100.00;98974.84;5027767;28;20999;-82
2023/09/24 03:10:41;;;;;;;6.97;1.87;;;7.40;99.90;;;8.37;100.00;98974.16;5027402;28;20457;-82
2023/09/24 03:13:13;;;;;;;3.30;1.77;;;7.40;99.90;;;8.41;100.00;98977.28;5027241;28;20468;-81
2023/09/24 03:15:42;;;;;;;7.13;1.73;;;7.40;99.90;;;8.35;100.00;98973.50;5028018;28;20888;-81
2023/09/24 03:18:13;;;;;;;2.80;1.50;;;7.40;99.90;;;8.28;100.00;98979.41;5009517;28;20474;-81
2023/09/24 03:20:47;;;;;;;1.90;1.60;;;7.40;99.90;;;8.30;100.00;98978.31;5027584;28;20849;-82
2023/09/24 03:23:19;;;;;;;3.93;1.60;;;7.40;99.90;;;8.33;100.00;98980.63;5027546;28;20458;-81
2023/09/24 03:25:49;;;;;;;3.20;1.60;;;7.30;99.90;;;8.28;100.00;98982.88;5027365;28;20982;-81
2023/09/24 03:28:18;;;;;;;2.67;1.57;;;7.30;99.90;;;8.25;100.00;98982.31;5028236;28;20549;-81
2023/09/24 03:30:49;;;;;;;7.00;1.50;;;7.20;99.90;;;8.24;100.00;98981.50;5026713;28;20458;-81
2023/09/24 03:33:19;;;;;;;1.97;1.77;;;7.20;99.90;;;8.26;100.00;98983.97;5026620;28;20482;-81
2023/09/24 03:35:50;;;;;;;2.10;1.63;;;7.10;99.90;;;8.23;100.00;98985.06;5026464;28;20466;-81
2023/09/24 03:38:24;;;;;;;2.97;1.77;;;7.10;99.90;;;8.08;100.00;98986.56;5026331;28;20490;-81
2023/09/24 03:40:58;;;;;;;2.50;1.60;;;7.30;99.90;;;8.12;100.00;98987.09;5025464;28;20670;-81
2023/09/24 03:43:29;;;;;;;3.10;1.30;;;7.30;99.90;;;8.17;100.00;98990.06;5025773;28;20471;-81
2023/09/24 03:46:00;;;;;;;2.60;1.87;;;7.20;99.90;;;8.15;100.00;99000.63;5024944;28;20489;-81
2023/09/24 03:48:30;;;;;;;1.53;1.40;;;7.30;99.90;;;8.14;100.00;98999.00;5026728;28;20866;-82
2023/09/24 03:51:00;;;;;;;3.23;1.60;;;7.00;99.90;;;8.14;100.00;98995.56;5026199;28;20534;-81
2023/09/24 03:53:33;;;;;;;4.47;1.60;;;7.10;99.90;;;8.13;100.00;98999.13;5025607;28;20580;-81
2023/09/24 03:56:05;;;;;;;2.40;1.80;;;7.20;99.90;;;8.05;100.00;98997.28;5026095;28;20501;-82
2023/09/24 03:58:35;;;;;;;2.23;1.80;;;7.10;99.90;;;8.07;100.00;99000.53;5027525;28;20453;-81
2023/09/24 04:01:11;;;;;;;2.50;1.57;;;7.00;99.90;;;8.05;100.00;99000.69;5028134;28;20501;-81
2023/09/24 04:03:42;;;;;;;8.93;1.57;;;7.20;99.90;;;8.06;100.00;99011.91;5025132;28;20450;-81
2023/09/24 04:06:12;;;;;;;2.67;1.50;;;7.10;99.90;;;7.99;100.00;99010.88;5025910;28;20557;-81
2023/09/24 04:08:46;;;;;;;2.20;1.30;;;7.20;99.90;;;8.05;100.00;99012.91;5009819;28;20827;-81
2023/09/24 04:11:18;;;;;;;1.60;1.30;;;7.00;99.90;;;7.97;100.00;99012.81;5026122;28;20480;-81
2023/09/24 04:13:48;;;;;;;4.40;2.30;;;7.10;99.90;;;7.92;100.00;99017.63;5027697;28;20462;-81
2023/09/24 04:16:17;;;;;;;5.07;1.60;;;7.10;99.90;;;7.90;100.00;99024.78;5026558;28;20494;-81
2023/09/24 04:18:48;;;;;;;2.23;1.40;;;7.00;99.90;;;7.95;100.00;99028.56;5026204;28;20933;-81
2023/09/24 04:21:20;;;;;;;4.33;2.17;;;6.90;99.90;;;7.97;100.00;99031.03;5027518;28;20466;-82
2023/09/24 04:23:54;;;;;;;1.77;1.40;;;6.90;99.90;;;7.98;100.00;99033.47;5025263;28;20557;-82
2023/09/24 04:26:25;;;;;;;3.33;1.63;;;6.90;99.90;;;7.98;100.00;99022.28;5026703;28;20576;-81
2023/09/24 04:28:55;;;;;;;1.50;1.40;;;6.90;99.90;;;7.99;100.00;99029.91;5026355;28;20462;-81
2023/09/24 04:31:24;;;;;;;9.53;1.80;;;6.90;99.90;;;7.92;100.00;99028.88;5009308;28;20480;-81
2023/09/24 04:33:55;;;;;;;7.43;1.70;;;7.10;99.90;;;7.79;100.00;99035.38;5023943;28;20465;-81
2023/09/24 04:36:29;;;;;;;2.07;1.60;;;7.10;99.90;;;7.84;100.00;99035.78;5025910;28;21517;-81
2023/09/24 04:39:00;;;;;;;4.93;1.50;;;7.00;99.90;;;7.71;100.00;99037.88;5025362;28;21026;-81
2023/09/24 04:41:33;;;;;;;1.40;1.30;;;7.00;99.90;;;7.68;100.00;99040.78;5024707;28;20466;-81
2023/09/24 04:44:03;;;;;;;1.73;1.50;;;7.00;99.90;;;7.70;100.00;99049.28;5024262;28;20473;-81
2023/09/24 04:46:33;;;;;;;1.70;1.50;;;6.90;99.90;;;7.72;100.00;99053.38;5024869;28;20465;-81
2023/09/24 04:49:04;;;;;;;1.63;1.20;;;6.80;99.90;;;7.71;100.00;99058.69;5025875;28;20454;-81
2023/09/24 04:51:34;;;;;;;2.83;1.63;;;6.80;99.90;;;7.73;100.00;99059.41;5024683;28;20520;-81
2023/09/24 04:54:06;;;;;;;2.83;1.50;;;6.80;99.90;;;7.72;100.00;99057.75;5024906;28;20589;-82
2023/09/24 04:56:35;;;;;;;4.33;1.60;;;6.70;99.90;;;7.71;100.00;99061.31;5009162;28;20470;-82
2023/09/24 04:59:07;;;;;;;2.20;1.40;;;6.70;99.90;;;7.66;100.00;99063.53;5027291;28;20457;-81
2023/09/24 05:01:37;;;;;;;1.57;1.27;;;6.70;99.90;;;7.66;100.00;99066.16;5025784;28;20462;-81
2023/09/24 05:04:07;;;;;;;1.30;1.17;;;6.70;99.90;;;7.54;100.00;99063.72;5024119;28;20558;-81
2023/09/24 05:06:38;;;;;;;3.17;1.70;;;6.80;99.90;;;7.61;100.00;99066.56;5025359;28;21222;-82
2023/09/24 05:09:08;;;;;;;3.00;1.20;;;6.70;99.90;;;7.62;100.00;99067.38;5009249;28;20520;-82
2023/09/24 05:11:38;;;;;;;7.70;1.50;;;6.70;99.90;;;7.66;100.00;99073.94;5023757;28;21035;-81
2023/09/24 05:14:07;;;;;;;3.50;1.33;;;6.70;99.90;;;7.63;100.00;99075.06;5025931;28;20470;-80
2023/09/24 05:16:38;;;;;;;1.87;1.60;;;6.50;99.90;;;7.57;100.00;99071.22;5024672;28;20475;-81
2023/09/24 05:19:09;;;;;;;1.40;1.30;;;6.60;99.90;;;7.57;100.00;99081.63;5024953;28;20465;-82
2023/09/24 05:21:42;;;;;;;1.20;1.10;;;6.60;99.90;;;7.64;100.00;99087.09;5026246;28;20461;-81
2023/09/24 05:24:14;;;;;;;1.40;1.27;;;6.70;99.90;;;7.63;100.00;99084.66;5024920;28;20509;-81
2023/09/24 05:26:45;;;;;;;3.60;1.33;;;6.60;99.90;;;7.55;100.00;99078.38;5022146;28;20907;-81
2023/09/24 05:29:15;;;;;;;1.73;1.20;;;6.70;99.90;;;7.56;100.00;99098.25;5024850;28;20466;-81
2023/09/24 05:31:44;;;;;;;3.40;1.50;;;6.80;99.90;;;7.57;100.00;99099.84;5024591;28;21018;-79
2023/09/24 05:34:14;;;;;;;2.50;1.50;;;6.60;99.90;;;7.49;100.00;99104.16;5023058;28;20449;-80
2023/09/24 05:36:45;;;;;;;2.93;1.77;;;6.60;99.90;;;7.45;100.00;99114.03;5024652;28;20900;-79
2023/09/24 05:39:16;;;;;;;1.70;1.50;;;6.60;99.90;;;7.42;100.00;99116.91;5022912;28;20819;-79
2023/09/24 05:41:49;;;;;;;4.50;1.50;;;6.60;99.90;;;7.40;100.00;99124.00;5025618;28;21001;-79
2023/09/24 05:44:20;;;;;;;3.13;1.53;;;6.50;99.90;;;7.38;100.00;99123.34;5016336;28;21035;-79
2023/09/24 05:46:51;;;;;;;1.40;1.20;;;6.60;99.90;;;7.44;100.00;99127.97;5023632;28;20462;-79
2023/09/24 05:49:21;;;;;;;1.30;1.20;;;6.60;99.90;;;7.43;100.00;99128.09;5024281;28;21201;-79
2023/09/24 05:51:50;;;;;;;3.43;1.50;;;6.70;99.90;;;7.42;100.00;99135.13;5023209;28;20473;-80
2023/09/24 05:54:22;;;;;;;3.10;1.90;;;6.60;99.90;;;7.45;100.00;99139.22;5023452;28;20466;-79
2023/09/24 05:56:52;;;;;;;5.27;2.70;;;6.70;99.90;;;7.49;100.00;99138.81;5023755;28;20501;-78
2023/09/24 05:59:22;;;;;;;5.47;2.73;;;6.60;99.90;;;7.49;100.00;99140.56;5024420;28;20462;-78
2023/09/24 06:01:53;;;;;;;3.23;1.80;;;6.60;99.90;;;7.43;100.00;99143.72;5024362;28;20481;-78
2023/09/24 06:04:23;;;;;;;3.60;1.70;;;6.50;99.90;;;7.44;100.00;99140.16;5024573;28;20458;-78
2023/09/24 06:06:53;;;;;;;3.40;1.67;;;6.50;99.90;;;7.41;100.00;99143.88;5024107;28;21028;-78
2023/09/24 06:09:25;;;;;;;5.70;1.93;;;6.60;99.90;;;7.40;100.00;99142.22;5024307;28;20466;-78
2023/09/24 06:11:55;;;;;;;6.10;2.17;;;6.60;99.90;;;7.43;100.00;99146.31;5023427;28;20464;-77
2023/09/24 06:14:24;;;;;;;7.27;2.00;;;6.60;99.90;;;7.48;100.00;99149.34;5018327;28;20473;-79
2023/09/24 06:16:56;;;;;;;5.37;1.80;;;6.60;99.90;;;7.51;100.00;99154.25;5023674;28;20480;-80
2023/09/24 06:19:28;;;;;;;5.43;1.93;;;6.70;99.90;;;7.57;100.00;99151.09;5024971;28;20972;-80
2023/09/24 06:21:58;;;;;;;2.43;1.97;;;6.60;99.90;;;7.52;100.00;99161.94;5021910;28;20451;-80
2023/09/24 06:24:30;;;;;;;7.83;2.57;;;6.50;99.90;;;7.51;100.00;99170.69;5022825;28;20461;-80
2023/09/24 06:27:00;;;;;;;5.30;1.73;;;6.50;99.90;;;7.56;100.00;99163.31;5020800;28;20484;-82
2023/09/24 06:29:29;;;;;;;4.37;1.70;;;6.50;99.90;;;7.54;100.00;99169.59;5024596;28;20462;-81
2023/09/24 06:32:01;;;;;;;2.77;1.90;;;6.60;99.90;;;7.55;100.00;99169.47;5024410;28;20482;-80
2023/09/24 06:34:32;;;;;;;1.83;1.70;;;6.70;99.90;;;7.54;100.00;99164.38;5026784;28;20466;-80
2023/09/24 06:37:02;;;;;;;1.67;1.50;;;6.80;99.90;;;7.60;100.00;99167.25;5028212;28;20454;-81
2023/09/24 06:39:34;;;;;;;3.13;1.43;;;6.80;99.90;;;7.62;100.00;99161.09;5028640;28;20520;-81
2023/09/24 06:42:04;;;;;;;4.00;2.00;;;6.80;99.90;;;7.69;100.00;99162.16;5029514;28;20465;-81
2023/09/24 06:44:35;;;;;;;3.80;1.70;;;6.80;99.90;;;7.75;100.00;99159.00;5029181;28;20462;-81
2023/09/24 06:47:05;;;;;;;1.97;1.77;;;6.80;99.90;;;7.77;100.00;99164.91;5026828;28;20470;-81
2023/09/24 06:49:37;;;;;;;5.03;1.70;;;6.80;99.90;;;7.73;100.00;99160.94;5028257;28;20454;-81
2023/09/24 06:52:06;;;;;;;1.63;1.30;;;6.70;99.90;;;7.79;100.00;99165.56;5027833;28;20466;-81
2023/09/24 06:54:37;;;;;;;2.70;2.20;;;6.80;99.90;;;7.82;100.00;99165.28;5010378;28;20458;-80
2023/09/24 06:57:07;;;;;;;1.83;1.53;;;6.90;99.90;;;7.87;100.00;99170.88;5027577;28;20478;-81
2023/09/24 06:59:36;;;;;;;10.13;1.60;;;6.90;99.90;;;7.89;100.00;99171.56;5010321;28;20493;-81
2023/09/24 07:02:09;;;;;;;1.93;1.43;;;6.90;99.90;;;7.91;100.00;99169.66;5027977;28;20960;-80
2023/09/24 07:04:43;;;;;;;4.17;2.30;;;7.00;99.90;;;7.91;100.00;99172.25;5027050;28;20469;-81
2023/09/24 07:07:12;;;;;;;4.47;1.60;;;6.90;99.90;;;7.94;100.00;99171.97;5027645;28;20470;-81
2023/09/24 07:09:43;;;;;;;2.07;1.70;;;7.10;99.90;;;8.02;100.00;99178.09;5008583;28;20551;-81
2023/09/24 07:12:13;;;;;;;1.97;1.77;;;7.20;99.90;;;8.08;100.00;99174.94;5024428;28;20480;-81
2023/09/24 07:14:44;;;;;;;2.23;1.70;;;7.20;99.90;;;8.14;100.00;99183.13;5010528;28;20466;-81
2023/09/24 07:17:15;;;;;;;2.33;1.73;;;7.20;99.90;;;8.19;100.00;99180.91;5021356;28;20501;-80
2023/09/24 07:19:47;;;;;;;6.50;2.20;;;7.20;99.90;;;8.25;100.00;99178.56;5025049;28;21075;-79
2023/09/24 07:22:24;;;;;;;5.50;2.40;;;7.30;99.90;;;8.28;100.00;99175.69;5023780;28;20466;-81
2023/09/24 07:24:57;;;;;;;1.70;1.60;;;7.40;99.90;;;8.32;100.00;99166.63;5022326;28;20476;-80
2023/09/24 07:27:26;;;;;;;2.30;1.70;;;7.40;99.90;;;8.38;100.00;99160.81;5025227;28;20554;-81
2023/09/24 07:29:56;;;;;;;1.87;1.60;;;7.40;99.90;;;8.40;100.00;99161.47;5023539;28;20464;-81
2023/09/24 07:32:28;;;;;;;2.47;1.83;;;7.50;99.90;;;8.47;100.00;99170.38;5023867;28;20597;-81
2023/09/24 07:34:58;;;;;;;7.37;2.00;;;7.60;99.90;;;8.53;100.00;99172.41;5024929;28;21016;-80
2023/09/24 07:37:30;;;;;;;4.27;1.77;;;7.60;99.90;;;8.59;100.00;99174.41;5025495;28;20484;-81
2023/09/24 07:40:02;;;;;;;12.83;2.00;;;7.80;99.90;;;8.65;100.00;99177.41;5023650;28;20493;-80
2023/09/24 07:42:31;;;;;;;2.40;1.20;;;7.80;99.90;;;8.70;100.00;99175.19;5026030;28;20462;-81
2023/09/24 07:45:01;;;;;;;3.00;2.00;;;7.80;99.90;;;8.72;100.00;99175.84;5022972;28;20470;-81
2023/09/24 07:47:31;;;;;;;1.93;1.47;;;7.90;99.90;;;8.79;100.00;99171.69;5008585;28;20454;-80
2023/09/24 07:50:01;;;;;;;14.53;7.20;;;7.90;99.90;;;8.85;100.00;99173.72;5025943;28;20528;-80
2023/09/24 07:52:33;;;;;;;9.50;2.70;;;8.00;99.90;;;8.93;100.00;99172.00;5018893;28;20465;-80
2023/09/24 07:55:06;;;;;;;8.10;1.60;;;8.00;99.90;;;8.98;100.00;99163.72;5021210;28;21246;-81
2023/09/24 07:57:36;;;;;;;4.53;1.70;;;8.10;99.90;;;9.04;100.00;99161.34;5023627;28;20478;-79
2023/09/24 08:00:10;;;;;;;3.90;2.03;;;8.20;99.90;;;9.12;100.00;99165.81;5024025;28;20522;-79
2023/09/24 08:02:41;;;;;;;1.67;1.33;;;8.30;99.90;;;9.19;100.00;99166.03;5024894;28;20480;-80
2023/09/24 08:05:11;;;;;;;4.17;2.00;;;8.30;99.90;;;9.25;100.00;99160.19;5022891;28;20462;-81
2023/09/24 08:07:41;;;;;;;2.50;1.60;;;8.30;99.90;;;9.30;100.00;99163.97;5023128;28;20469;-81
2023/09/24 08:10:15;;;;;;;2.53;1.60;;;8.40;99.90;;;9.33;100.00;99168.09;5024563;28;20480;-80
2023/09/24 08:12:44;;;;;;;2.07;1.80;;;8.40;99.90;;;9.39;100.00;99168.31;5025047;28;20474;-80
2023/09/24 08:15:14;;;;;;;1.67;1.57;;;8.50;99.90;;;9.45;100.00;99169.50;5023500;28;20458;-81
2023/09/24 08:17:45;;;;;;;1.97;1.60;;;8.60;99.90;;;9.48;100.00;99162.16;5024556;28;20473;-80
2023/09/24 08:20:15;;;;;;;1.80;1.57;;;8.60;99.90;;;9.52;100.00;99163.50;5018016;28;20496;-80
2023/09/24 08:23:07;;;;;;;4.60;2.00;;;8.60;99.90;;;9.61;100.00;99167.81;5017331;28;21125;-80
2023/09/24 08:25:41;;;;;;;2.07;1.47;;;8.70;99.90;;;9.68;100.00;99168.03;5021058;28;21463;-81
2023/09/24 08:28:10;;;;;;;2.27;1.53;;;8.80;99.90;;;9.73;100.00;99160.53;5006621;28;20478;-81
2023/09/24 08:30:40;;;;;;;3.17;1.70;;;8.80;99.90;;;9.79;100.00;99159.91;5020128;28;20553;-81
2023/09/24 08:33:14;;;;;;;3.23;1.47;;;8.90;99.90;;;9.85;100.00;99159.31;5021332;28;20490;-80
2023/09/24 08:35:45;;;;;;;6.00;1.70;;;9.00;99.90;;;9.93;100.00;99161.13;5023167;28;20578;-81
2023/09/24 08:38:16;;;;;;;3.97;1.80;;;9.10;99.90;;;9.98;100.00;99159.72;5022944;28;20476;-80
2023/09/24 08:40:48;;;;;;;2.30;1.73;;;9.10;99.90;;;10.05;100.00;99154.69;5023702;28;20540;-81
2023/09/24 08:43:21;;;;;;;4.57;1.63;;;9.20;99.90;;;10.13;100.00;99158.13;5023622;28;20467;-81
2023/09/24 08:45:53;;;;;;;1.63;1.30;;;9.30;99.90;;;10.20;100.00;99154.94;5023871;28;20819;-80
2023/09/24 08:48:25;;;;;;;2.33;1.60;;;9.40;99.90;;;10.27;100.00;99150.72;5022380;28;20462;-81
2023/09/24 08:50:57;;;;;;;4.47;1.40;;;9.40;99.90;;;10.32;100.00;99151.88;5023170;28;20497;-80
2023/09/24 08:53:31;;;;;;;2.37;1.37;;;9.50;99.90;;;10.39;100.00;99145.06;5023254;28;20470;-81
2023/09/24 08:56:03;;;;;;;2.20;1.43;;;9.60;99.90;;;10.48;100.00;99146.69;5024440;28;20461;-81
2023/09/24 08:58:32;;;;;;;1.83;1.47;;;9.70;99.90;;;10.55;100.00;99152.94;5024425;28;20494;-80
2023/09/24 09:01:03;;;;;;;1.50;1.40;;;9.80;99.90;;;10.64;100.00;99153.78;5024065;28;20949;-81
2023/09/24 09:03:34;;;;;;;5.87;3.50;;;9.90;99.90;;;10.73;100.00;99146.75;5023796;28;20466;-80
2023/09/24 09:06:04;;;;;;;5.80;2.13;;;10.00;99.90;;;10.79;100.00;99148.75;5024819;28;20466;-81
2023/09/24 09:08:51;;;;;;;3.27;1.57;;;10.10;99.90;;;10.88;100.00;99150.41;5024849;28;20474;-80
2023/09/24 09:11:40;;;;;;;2.73;1.63;;;10.10;99.90;;;10.96;100.00;99150.41;5023824;28;20977;-81
2023/09/24 09:14:13;;;;;;;2.93;1.30;;;10.30;99.90;;;11.05;100.00;99144.19;5022411;28;20461;-80
2023/09/24 09:16:57;;;;;;;1.93;1.40;;;10.30;99.90;;;11.12;100.00;99139.94;5021244;28;20583;-80
2023/09/24 09:19:29;;;;;;;2.53;1.10;;;10.40;99.90;;;11.21;100.00;99140.78;5022619;28;20911;-79
2023/09/24 09:22:17;;;;;;;2.83;1.50;;;10.50;99.90;;;11.25;100.00;99136.81;5021258;28;20933;-80
2023/09/24 09:24:50;;;;;;;3.70;1.30;;;10.60;99.90;;;11.29;100.00;99136.34;5022307;28;20466;-80
2023/09/24 09:27:21;;;;;;;2.40;1.30;;;10.70;99.90;;;11.34;100.00;99128.81;5020458;28;20476;-81
2023/09/24 09:29:50;;;;;;;1.57;1.20;;;10.80;99.90;;;11.44;100.00;99124.22;5021692;28;20466;-80
2023/09/24 09:32:21;;;;;;;3.83;1.30;;;10.90;99.90;;;11.53;100.00;99117.97;5022001;28;20486;-80
2023/09/24 09:34:53;;;;;;;22.23;8.30;;;10.90;99.90;;;11.61;100.00;99117.97;5023306;28;20466;-82
2023/09/24 09:37:24;;;;;;;169.43;89.70;;;11.00;99.90;;;11.68;100.00;99117.31;5022831;28;20469;-79
2023/09/24 09:39:55;;;;;;;5.30;2.90;;;11.10;99.90;;;11.77;100.00;99108.44;5022355;28;20967;-80
2023/09/24 09:42:33;;;;;;;4.67;1.67;;;11.30;99.90;;;11.86;100.00;99115.31;5021223;28;20469;-80
2023/09/24 09:45:08;;;;;;;2.50;1.30;;;11.40;99.90;;;11.94;100.00;99120.56;5020758;28;20457;-80
2023/09/24 09:48:01;;;;;;;1.33;1.10;;;11.40;99.90;;;12.02;100.00;99113.47;5022844;28;20516;-80
2023/09/24 09:50:42;;;;;;;2.03;1.23;;;11.60;99.90;;;12.13;100.00;99106.19;5023106;28;20462;-80
2023/09/24 09:53:21;;;;;;;1.53;1.30;;;11.70;99.90;;;12.25;100.00;99104.84;5019715;28;20462;-80
2023/09/24 09:55:53;;;;;;;2.57;1.13;;;11.80;99.90;;;12.35;100.00;99110.69;5022696;28;20876;-81
2023/09/24 09:58:26;;;;;;;22.67;12.70;;;11.90;99.90;;;12.42;100.00;99103.78;5022003;28;20466;-80
2023/09/24 10:00:55;;;;;;;4.07;2.70;;;12.00;99.90;;;12.56;100.00;99101.22;5022909;28;20517;-80
2023/09/24 10:03:27;;;;;;;3.73;1.47;;;12.10;99.90;;;12.68;100.00;99100.81;5025796;28;20465;-81
2023/09/24 10:06:00;;;;;;;3.77;1.10;;;12.20;99.90;;;12.75;100.00;99092.06;5029120;28;20472;-80
2023/09/24 10:08:42;;;;;;;1.50;1.20;;;12.30;99.90;;;12.89;100.00;99086.06;5029590;28;20476;-80
2023/09/24 10:11:13;;;;;;;2.40;1.27;;;12.50;99.90;;;12.99;100.00;99093.69;5026531;28;20468;-80
2023/09/24 10:13:49;;;;;;;2.07;1.30;;;12.60;99.90;;;13.08;100.00;99100.53;5029567;28;20994;-80
2023/09/24 10:16:38;;;;;;;2.43;1.23;;;12.70;99.90;;;13.19;100.00;99087.00;5025856;28;20472;-80
2023/09/24 10:19:11;;;;;;;1.47;1.00;;;12.80;99.90;;;13.26;100.00;99087.91;5028753;28;20457;-79
2023/09/24 10:21:43;;;;;;;3.00;1.20;;;12.90;99.90;;;13.38;100.00;99083.88;5027566;28;20841;-80
2023/09/24 10:24:42;;;;;;;2.17;1.20;;;13.00;99.90;;;13.49;100.00;99075.56;5028299;28;20469;-80
2023/09/24 10:27:12;;;;;;;4.73;1.30;;;13.10;99.90;;;13.54;100.00;99070.56;5028484;28;21416;-80
2023/09/24 10:30:11;;;;;;;4.60;1.60;;;13.20;99.90;;;13.61;100.00;99071.47;5029157;28;20469;-80
2023/09/24 10:32:49;;;;;;;1.43;1.00;;;13.20;99.90;;;13.68;100.00;99074.19;4992923;28;20481;-80
2023/09/24 10:35:20;;;;;;;1.50;0.93;;;13.20;99.90;;;13.71;100.00;99073.03;5012061;28;21018;-80
2023/09/24 10:38:05;;;;;;;3.53;1.27;;;13.30;99.90;;;13.78;100.00;99079.19;5027272;28;20560;-80
2023/09/24 10:40:35;;;;;;;1.20;1.10;;;13.30;99.90;;;13.82;100.00;99072.56;5027679;28;20481;-80
2023/09/24 10:43:19;;;;;;;1.70;1.20;;;13.30;99.90;;;13.84;100.00;99078.47;5028005;28;20493;-80